Time;durP1;ratioP1;P1;durP2;ratioP2;P2;SDS_P1;SDS_P2;PMS_P1;PMS_P2;Temp;Humidity;BMP_temperature;BMP_pressure;BME280_temperature;BME280_humidity;BME280_pressure;Samples;Min_cycle;Max_cycle;Signal;HPM_P1;HPM_P2
2023/07/12 00:01:22;;;;;;;7.55;1.45;;;25.00;1.00;;;;;;4912795;29;20040;-51
2023/07/12 00:03:50;;;;;;;5.22;1.30;;;25.00;1.00;;;;;;4899314;29;20105;-51
2023/07/12 00:06:22;;;;;;;3.60;1.13;;;25.00;1.00;;;;;;4899927;29;20045;-51
2023/07/12 00:08:49;;;;;;;3.78;1.70;;;25.00;1.00;;;;;;4901880;29;20082;-51
2023/07/12 00:11:21;;;;;;;3.38;1.48;;;25.00;1.00;;;;;;4916244;29;20092;-51
2023/07/12 00:13:50;;;;;;;3.58;1.20;;;25.00;1.00;;;;;;4899800;29;20045;-50
2023/07/12 00:16:26;;;;;;;3.60;1.63;;;25.00;1.00;;;;;;4899443;29;20054;-49
2023/07/12 00:18:55;;;;;;;5.85;1.48;;;25.00;1.00;;;;;;4905545;29;20036;-51
2023/07/12 00:21:25;;;;;;;4.20;1.42;;;25.00;1.00;;;;;;4897856;29;20115;-50
2023/07/12 00:23:53;;;;;;;5.72;1.58;;;25.00;1.00;;;;;;4916140;29;20452;-51
2023/07/12 00:26:33;;;;;;;3.42;0.90;;;25.00;1.00;;;;;;4915559;29;20044;-51
2023/07/12 00:29:03;;;;;;;5.53;1.40;;;25.00;1.00;;;;;;4915689;29;20047;-49
2023/07/12 00:31:32;;;;;;;3.88;0.80;;;25.00;1.00;;;;;;4901007;29;20115;-49
2023/07/12 00:34:03;;;;;;;4.38;1.83;;;25.00;1.00;;;;;;4898970;29;20048;-49
2023/07/12 00:36:31;;;;;;;4.28;1.13;;;25.00;1.00;;;;;;4898812;29;20176;-48
2023/07/12 00:39:00;;;;;;;4.22;1.33;;;25.00;1.00;;;;;;4899015;29;20037;-50
2023/07/12 00:41:56;;;;;;;4.18;1.30;;;24.90;1.00;;;;;;4915828;29;20050;-49
2023/07/12 00:44:30;;;;;;;3.67;1.17;;;24.90;1.00;;;;;;4915785;29;20036;-49
2023/07/12 00:46:58;;;;;;;4.55;2.10;;;24.90;1.00;;;;;;4915980;29;20099;-49
2023/07/12 00:49:26;;;;;;;5.57;1.30;;;25.00;1.00;;;;;;4898846;29;20126;-51
2023/07/12 00:52:01;;;;;;;4.25;1.27;;;24.90;1.00;;;;;;4915843;29;20044;-49
2023/07/12 00:54:53;;;;;;;7.45;1.70;;;24.90;1.00;;;;;;4898774;29;20086;-49
2023/07/12 00:57:22;;;;;;;5.38;1.17;;;24.90;1.00;;;;;;4898977;29;20539;-49
2023/07/12 00:59:52;;;;;;;3.72;1.20;;;24.90;1.00;;;;;;4915685;29;20119;-52
2023/07/12 01:02:23;;;;;;;3.30;1.27;;;24.90;1.00;;;;;;4915840;29;20040;-49
2023/07/12 01:04:54;;;;;;;6.53;1.05;;;24.90;1.00;;;;;;4898505;29;20100;-50
2023/07/12 01:07:23;;;;;;;6.28;1.45;;;24.90;1.00;;;;;;4898565;29;20048;-49
2023/07/12 01:09:50;;;;;;;6.45;1.77;;;24.90;1.00;;;;;;4915819;29;20044;-50
2023/07/12 01:12:17;;;;;;;5.38;1.27;;;24.90;1.00;;;;;;4898553;29;20052;-50
2023/07/12 01:14:45;;;;;;;4.82;1.83;;;24.90;1.00;;;;;;4915325;29;20052;-50
2023/07/12 01:17:12;;;;;;;5.53;1.35;;;24.90;1.00;;;;;;4915237;29;20044;-52
2023/07/12 01:19:39;;;;;;;4.60;1.55;;;24.90;1.00;;;;;;4915496;29;20131;-50
2023/07/12 01:22:08;;;;;;;3.75;1.35;;;24.90;1.00;;;;;;4915510;29;20085;-49
2023/07/12 01:24:35;;;;;;;5.07;1.20;;;24.90;1.00;;;;;;4915725;29;20526;-49
2023/07/12 01:29:58;;;;;;;4.80;1.27;;;24.90;1.00;;;;;;5389955;23;20059;-49
2023/07/12 01:32:27;;;;;;;5.32;1.60;;;24.80;1.00;;;;;;4881217;29;20076;-50
2023/07/12 01:34:54;;;;;;;3.42;1.20;;;24.80;1.00;;;;;;4879653;29;20055;-49
2023/07/12 01:37:23;;;;;;;5.95;1.23;;;24.80;1.00;;;;;;4879397;29;20049;-49
2023/07/12 01:39:52;;;;;;;4.68;1.33;;;24.80;1.00;;;;;;4879951;29;20387;-51
2023/07/12 01:42:19;;;;;;;4.82;1.73;;;24.80;1.00;;;;;;4898740;29;20049;-49
2023/07/12 01:44:45;;;;;;;4.85;1.33;;;24.80;1.00;;;;;;4900100;29;20048;-49
2023/07/12 01:47:12;;;;;;;8.40;1.80;;;24.80;1.00;;;;;;4900008;29;20052;-52
2023/07/12 01:49:39;;;;;;;11.23;1.73;;;24.80;1.00;;;;;;4882922;29;20080;-49
2023/07/12 01:52:07;;;;;;;5.82;1.48;;;24.80;1.00;;;;;;4883183;29;20084;-50
2023/07/12 01:54:33;;;;;;;8.07;2.42;;;24.80;1.00;;;;;;4882987;29;20060;-51
2023/07/12 01:57:00;;;;;;;5.97;1.65;;;24.80;1.00;;;;;;4899780;29;20120;-50
2023/07/12 02:02:09;;;;;;;4.50;1.85;;;24.80;1.00;;;;;;4926720;29;20054;-49
2023/07/12 02:04:37;;;;;;;5.68;2.22;;;24.80;1.00;;;;;;4935767;29;20453;-50
2023/07/12 02:07:04;;;;;;;8.15;1.70;;;24.80;1.00;;;;;;4940958;29;20064;-52
2023/07/12 02:09:39;;;;;;;5.30;1.70;;;24.80;1.00;;;;;;4926575;29;20094;-49
2023/07/12 02:12:08;;;;;;;5.30;1.75;;;24.80;1.00;;;;;;4917599;29;20040;-49
2023/07/12 02:14:36;;;;;;;5.25;1.55;;;24.80;1.00;;;;;;4928265;29;20476;-52
2023/07/12 02:17:03;;;;;;;6.30;1.60;;;24.80;1.00;;;;;;4915305;29;20044;-49
2023/07/12 02:19:31;;;;;;;3.58;1.15;;;24.80;1.00;;;;;;4920430;29;20444;-50
2023/07/12 02:21:58;;;;;;;4.15;1.73;;;24.80;1.00;;;;;;4926935;29;20071;-50
2023/07/12 02:24:25;;;;;;;5.70;2.28;;;24.80;1.00;;;;;;4929026;29;20071;-49
2023/07/12 02:26:51;;;;;;;7.45;1.95;;;24.80;1.00;;;;;;4940612;29;20063;-50
2023/07/12 02:29:18;;;;;;;3.30;1.33;;;24.70;1.00;;;;;;4945394;29;20381;-48
2023/07/12 02:31:45;;;;;;;5.45;1.25;;;24.80;1.00;;;;;;5303931;23;20059;-50
2023/07/12 02:34:12;;;;;;;7.13;1.50;;;24.80;1.00;;;;;;4931623;29;20508;-50
2023/07/12 02:36:39;;;;;;;6.38;2.28;;;24.70;1.00;;;;;;4927722;29;20051;-49
2023/07/12 02:39:06;;;;;;;7.78;2.40;;;24.70;1.00;;;;;;4929304;29;20127;-53
2023/07/12 02:41:33;;;;;;;4.82;1.70;;;24.70;1.00;;;;;;4924133;29;20040;-50
2023/07/12 02:44:00;;;;;;;5.70;2.05;;;24.70;1.00;;;;;;4918116;29;20058;-50
2023/07/12 02:46:27;;;;;;;4.32;1.92;;;24.70;1.00;;;;;;4918024;29;20123;-51
2023/07/12 02:48:53;;;;;;;5.75;2.15;;;24.70;1.00;;;;;;4918047;29;20040;-50
2023/07/12 02:51:20;;;;;;;3.47;1.70;;;24.70;1.00;;;;;;4918720;29;20135;-50
2023/07/12 02:53:47;;;;;;;8.95;2.17;;;24.70;1.00;;;;;;4917125;29;20131;-52
2023/07/12 02:56:14;;;;;;;9.60;2.75;;;24.70;1.00;;;;;;4917887;29;20048;-54
2023/07/12 02:58:41;;;;;;;8.10;2.22;;;24.70;1.00;;;;;;4918058;29;20074;-50
2023/07/12 03:01:08;;;;;;;6.32;1.50;;;24.70;1.00;;;;;;4918007;29;20119;-54
2023/07/12 03:03:35;;;;;;;7.38;2.03;;;24.70;1.00;;;;;;4912844;29;20120;-50
2023/07/12 03:06:05;;;;;;;4.82;1.40;;;24.70;1.00;;;;;;4898670;29;20485;-50
2023/07/12 03:08:31;;;;;;;6.00;1.38;;;24.70;1.00;;;;;;4899789;29;20049;-51
2023/07/12 03:10:59;;;;;;;8.00;1.77;;;24.70;1.00;;;;;;4898847;29;20488;-51
2023/07/12 03:13:26;;;;;;;3.13;1.08;;;24.60;1.00;;;;;;4898915;29;20516;-50
2023/07/12 03:15:53;;;;;;;4.80;1.80;;;24.60;1.00;;;;;;4898727;29;20052;-49
2023/07/12 03:18:20;;;;;;;5.05;1.58;;;24.60;1.00;;;;;;4905272;29;20115;-50
2023/07/12 03:20:48;;;;;;;4.82;1.42;;;24.60;1.00;;;;;;4917591;29;20496;-53
2023/07/12 03:23:15;;;;;;;5.88;1.80;;;24.60;1.00;;;;;;4917728;29;20059;-50
2023/07/12 03:25:46;;;;;;;5.68;1.27;;;24.60;1.00;;;;;;4917433;29;20040;-51
2023/07/12 03:28:13;;;;;;;4.93;1.48;;;24.60;1.00;;;;;;4918059;29;20130;-55
2023/07/12 03:30:39;;;;;;;6.55;1.65;;;24.60;1.00;;;;;;4918467;29;20086;-56
2023/07/12 03:33:06;;;;;;;8.00;1.95;;;24.60;1.00;;;;;;4917958;29;20404;-51
2023/07/12 03:35:34;;;;;;;6.75;1.25;;;24.60;1.00;;;;;;4930760;23;20064;-49
2023/07/12 03:38:00;;;;;;;3.55;2.03;;;24.60;1.00;;;;;;4917947;29;20047;-54
2023/07/12 03:40:27;;;;;;;8.77;1.98;;;24.60;1.00;;;;;;4917752;29;20119;-51
2023/07/12 03:42:54;;;;;;;6.55;1.67;;;24.60;1.00;;;;;;4917984;29;20460;-54
2023/07/12 03:45:21;;;;;;;6.93;1.60;;;24.60;1.00;;;;;;4917959;29;20051;-52
2023/07/12 03:47:48;;;;;;;6.97;1.70;;;24.60;1.00;;;;;;4917860;29;20095;-52
2023/07/12 03:50:15;;;;;;;4.13;2.15;;;24.60;1.00;;;;;;4918050;29;20040;-50
2023/07/12 03:52:42;;;;;;;7.75;2.30;;;24.60;1.00;;;;;;4919674;29;20094;-51
2023/07/12 03:55:09;;;;;;;6.72;2.42;;;24.60;1.00;;;;;;4938032;29;20039;-53
2023/07/12 03:57:41;;;;;;;2.97;1.33;;;24.60;1.00;;;;;;4938334;29;20050;-49
2023/07/12 04:00:10;;;;;;;4.03;1.50;;;24.60;1.00;;;;;;4939427;29;20091;-54
2023/07/12 04:02:42;;;;;;;4.18;1.17;;;24.60;1.00;;;;;;4938499;29;20059;-53
2023/07/12 04:05:09;;;;;;;6.18;2.13;;;24.60;1.00;;;;;;4967446;23;20107;-52
2023/07/12 04:07:36;;;;;;;6.82;2.17;;;24.60;1.00;;;;;;4916680;29;20048;-53
2023/07/12 04:10:03;;;;;;;6.63;2.47;;;24.60;1.00;;;;;;4923075;29;20468;-52
2023/07/12 04:12:30;;;;;;;7.90;2.30;;;24.60;1.00;;;;;;4921763;29;20056;-54
2023/07/12 04:14:58;;;;;;;10.40;2.55;;;24.50;1.00;;;;;;4925585;29;20040;-49
2023/07/12 04:17:25;;;;;;;11.50;3.28;;;24.50;1.00;;;;;;4917937;29;20064;-53
2023/07/12 04:19:52;;;;;;;10.52;3.13;;;24.50;1.00;;;;;;4920445;29;20044;-53
2023/07/12 04:22:19;;;;;;;17.10;3.50;;;24.50;1.00;;;;;;4920690;29;20618;-54
2023/07/12 04:24:50;;;;;;;10.90;2.80;;;24.50;1.00;;;;;;4919534;29;20052;-50
2023/07/12 04:27:18;;;;;;;14.02;3.78;;;24.50;1.00;;;;;;4920669;29;20157;-47
2023/07/12 04:29:46;;;;;;;10.30;2.45;;;24.40;1.00;;;;;;4921370;29;20501;-49
2023/07/12 04:32:13;;;;;;;13.45;2.75;;;24.40;1.00;;;;;;4920895;29;20127;-47
2023/07/12 04:34:39;;;;;;;9.80;3.55;;;24.40;1.00;;;;;;4921111;29;20044;-47
2023/07/12 04:37:09;;;;;;;4.57;2.78;;;24.40;1.00;;;;;;4920879;29;20492;-49
2023/07/12 04:39:36;;;;;;;8.48;2.13;;;24.40;1.00;;;;;;4920823;29;20485;-47
2023/07/12 04:42:03;;;;;;;8.95;2.90;;;24.40;1.00;;;;;;4920557;29;20404;-49
2023/07/12 04:44:30;;;;;;;10.45;3.08;;;24.40;1.00;;;;;;4920808;29;20044;-47
2023/07/12 04:46:57;;;;;;;13.65;2.60;;;24.40;1.00;;;;;;4918806;29;20064;-50
2023/07/12 04:49:24;;;;;;;5.80;2.55;;;24.40;1.00;;;;;;4919538;29;20052;-47
2023/07/12 04:51:50;;;;;;;14.07;2.17;;;24.30;1.00;;;;;;4927907;29;20040;-48
2023/07/12 04:54:17;;;;;;;14.52;2.90;;;24.30;1.00;;;;;;4917890;29;20048;-47
2023/07/12 04:56:44;;;;;;;11.82;2.70;;;24.40;1.00;;;;;;4919801;29;20048;-48
2023/07/12 04:59:12;;;;;;;12.32;2.65;;;24.30;1.00;;;;;;4937426;29;20052;-50
2023/07/12 05:01:39;;;;;;;9.02;2.83;;;24.30;1.00;;;;;;4937435;29;20043;-51
2023/07/12 05:04:06;;;;;;;8.43;3.13;;;24.30;1.00;;;;;;4937721;29;20067;-48
2023/07/12 05:06:34;;;;;;;13.48;2.83;;;24.30;1.00;;;;;;5293405;23;20051;-51
2023/07/12 05:09:01;;;;;;;10.10;2.50;;;24.30;1.00;;;;;;4957944;29;20074;-48
2023/07/12 05:11:27;;;;;;;12.60;3.03;;;24.30;1.00;;;;;;4955244;29;20067;-52
2023/07/12 05:13:54;;;;;;;7.05;2.00;;;24.30;1.00;;;;;;4953699;29;20122;-49
2023/07/12 05:16:21;;;;;;;9.57;2.60;;;24.30;1.00;;;;;;4952696;29;20035;-47
2023/07/12 05:18:48;;;;;;;9.15;2.10;;;24.30;1.00;;;;;;4953524;29;20103;-48
2023/07/12 05:21:16;;;;;;;8.15;2.40;;;24.30;1.00;;;;;;4953484;29;20546;-49
2023/07/12 05:23:43;;;;;;;10.45;2.85;;;24.30;1.00;;;;;;4953401;29;20048;-50
2023/07/12 05:26:10;;;;;;;12.55;2.60;;;24.30;1.00;;;;;;4940994;29;20039;-48
2023/07/12 05:28:37;;;;;;;10.82;2.67;;;24.30;1.00;;;;;;4934470;29;20044;-50
2023/07/12 05:31:11;;;;;;;7.80;2.35;;;24.30;1.00;;;;;;4926621;29;20040;-50
2023/07/12 05:33:42;;;;;;;7.15;3.55;;;24.30;1.00;;;;;;4934311;29;20456;-50
2023/07/12 05:36:09;;;;;;;9.55;2.60;;;24.30;1.00;;;;;;4934268;29;20064;-49
2023/07/12 05:38:36;;;;;;;12.45;2.35;;;24.30;1.00;;;;;;4954453;23;20056;-50
2023/07/12 05:41:04;;;;;;;6.32;2.53;;;24.30;1.00;;;;;;4915151;29;20041;-50
2023/07/12 05:43:30;;;;;;;8.55;2.53;;;24.30;1.00;;;;;;4915315;29;20590;-50
2023/07/12 05:45:57;;;;;;;12.25;3.50;;;24.30;1.00;;;;;;4914950;29;20074;-49
2023/07/12 05:48:25;;;;;;;8.43;2.03;;;24.30;1.00;;;;;;4913916;29;20092;-47
2023/07/12 05:50:53;;;;;;;10.57;1.95;;;24.30;1.00;;;;;;4915172;29;20040;-47
2023/07/12 05:53:21;;;;;;;7.40;2.22;;;24.30;1.00;;;;;;4913894;29;20119;-47
2023/07/12 05:55:56;;;;;;;7.47;1.83;;;24.30;1.00;;;;;;4923879;29;20555;-47
2023/07/12 05:58:24;;;;;;;6.07;2.30;;;24.30;1.00;;;;;;4934085;29;20579;-47
2023/07/12 06:00:59;;;;;;;5.35;2.00;;;24.30;1.00;;;;;;4933958;29;20040;-49
2023/07/12 06:03:27;;;;;;;9.45;3.08;;;24.30;1.00;;;;;;4934107;29;20062;-46
2023/07/12 06:05:55;;;;;;;10.15;2.45;;;24.20;1.00;;;;;;4933737;29;20087;-50
2023/07/12 06:08:24;;;;;;;5.32;1.83;;;24.30;1.00;;;;;;4934288;29;20131;-48
2023/07/12 06:10:51;;;;;;;7.50;2.05;;;24.30;1.00;;;;;;4934464;29;20044;-47
2023/07/12 06:13:18;;;;;;;11.23;2.00;;;24.20;1.00;;;;;;4933945;29;20040;-49
2023/07/12 06:15:46;;;;;;;8.30;2.00;;;24.30;1.00;;;;;;4933766;29;20493;-49
2023/07/12 06:18:13;;;;;;;10.73;2.75;;;24.20;1.00;;;;;;4934194;29;20103;-49
2023/07/12 06:20:40;;;;;;;4.45;1.80;;;24.20;1.00;;;;;;4933891;29;20072;-48
2023/07/12 06:23:06;;;;;;;9.60;2.90;;;24.20;1.00;;;;;;4933639;29;20575;-49
2023/07/12 06:25:33;;;;;;;7.88;2.70;;;24.20;1.00;;;;;;4934167;29;20067;-48
2023/07/12 06:28:00;;;;;;;8.95;2.17;;;24.20;1.00;;;;;;4935686;29;20369;-49
2023/07/12 06:30:27;;;;;;;6.75;2.35;;;24.30;1.00;;;;;;4937227;29;20063;-49
2023/07/12 06:32:54;;;;;;;9.57;1.77;;;24.30;1.00;;;;;;4937092;29;20040;-47
2023/07/12 06:35:21;;;;;;;4.10;1.85;;;24.30;1.00;;;;;;4937086;29;20440;-49
2023/07/12 06:37:47;;;;;;;5.88;1.60;;;24.20;1.00;;;;;;4936927;29;20047;-50
2023/07/12 06:40:14;;;;;;;7.38;1.52;;;24.20;1.00;;;;;;4928618;29;20048;-47
2023/07/12 06:42:41;;;;;;;7.32;1.45;;;24.30;1.00;;;;;;4918057;29;20036;-49
2023/07/12 06:45:09;;;;;;;7.65;2.28;;;24.20;1.00;;;;;;4916641;29;20040;-48
2023/07/12 06:47:36;;;;;;;5.43;1.75;;;24.20;1.00;;;;;;4916482;29;20134;-48
2023/07/12 06:50:04;;;;;;;5.25;1.80;;;24.20;1.00;;;;;;4917885;29;20044;-48
2023/07/12 06:52:31;;;;;;;5.68;1.33;;;24.20;1.00;;;;;;4917831;29;20115;-48
2023/07/12 06:54:57;;;;;;;4.85;1.88;;;24.30;1.00;;;;;;4918017;29;20416;-48
2023/07/12 06:57:24;;;;;;;5.32;2.00;;;24.20;1.00;;;;;;4917426;29;20071;-48
2023/07/12 06:59:51;;;;;;;7.32;1.67;;;24.20;1.00;;;;;;4917735;29;20048;-49
2023/07/12 07:02:19;;;;;;;7.78;2.25;;;24.30;1.00;;;;;;4917643;29;20051;-49
2023/07/12 07:04:46;;;;;;;5.85;2.05;;;24.30;1.00;;;;;;4917713;29;20040;-48
2023/07/12 07:07:12;;;;;;;4.85;2.03;;;24.30;1.00;;;;;;4917613;29;20492;-48
2023/07/12 07:12:29;;;;;;;4.63;1.77;;;24.30;1.00;;;;;;4896857;29;20064;-49
2023/07/12 07:14:56;;;;;;;5.55;2.05;;;24.30;1.00;;;;;;4898590;29;20048;-48
2023/07/12 07:17:23;;;;;;;4.95;1.98;;;24.30;1.00;;;;;;4898337;29;20124;-47
2023/07/12 07:19:50;;;;;;;7.40;2.08;;;24.30;1.00;;;;;;4898389;29;20044;-49
2023/07/12 07:22:17;;;;;;;4.13;1.55;;;24.30;1.00;;;;;;4898335;29;20413;-50
2023/07/12 07:24:44;;;;;;;6.80;1.80;;;24.30;1.00;;;;;;4898614;29;20338;-47
2023/07/12 07:27:12;;;;;;;5.72;1.58;;;24.30;1.00;;;;;;4898210;29;20041;-47
2023/07/12 07:29:39;;;;;;;5.68;1.55;;;24.30;1.00;;;;;;4898382;29;20049;-49
2023/07/12 07:32:07;;;;;;;4.03;1.90;;;24.30;1.00;;;;;;4898160;29;20132;-49
2023/07/12 07:34:34;;;;;;;4.40;2.03;;;24.30;1.00;;;;;;4898229;29;20052;-49
2023/07/12 07:37:01;;;;;;;5.95;1.55;;;24.30;1.00;;;;;;4897707;29;20063;-49
2023/07/12 07:39:30;;;;;;;4.45;1.60;;;24.30;1.00;;;;;;4897571;29;20049;-51
2023/07/12 07:41:58;;;;;;;5.07;1.73;;;24.30;1.00;;;;;;5105650;23;20044;-50
2023/07/12 07:44:24;;;;;;;3.42;1.33;;;24.30;1.00;;;;;;4935625;29;20071;-48
2023/07/12 07:46:51;;;;;;;6.88;2.53;;;24.30;1.00;;;;;;4935456;29;20048;-48
2023/07/12 07:49:18;;;;;;;6.63;1.80;;;24.30;1.00;;;;;;4935868;29;20043;-50
2023/07/12 07:51:45;;;;;;;5.53;2.15;;;24.30;1.00;;;;;;4935625;29;20054;-48
2023/07/12 07:54:12;;;;;;;4.97;1.55;;;24.40;1.00;;;;;;4935677;29;20043;-48
2023/07/12 07:56:41;;;;;;;4.22;2.05;;;24.40;1.00;;;;;;4935396;29;20044;-50
2023/07/12 07:59:08;;;;;;;3.13;1.40;;;24.40;1.00;;;;;;4934388;29;20396;-50
2023/07/12 08:01:35;;;;;;;3.33;1.10;;;24.40;1.00;;;;;;4916485;29;20409;-50
2023/07/12 08:04:04;;;;;;;3.38;1.27;;;24.40;1.00;;;;;;4916511;29;20066;-49
2023/07/12 08:06:33;;;;;;;4.43;1.98;;;24.40;1.00;;;;;;4916266;29;20044;-49
2023/07/12 08:09:00;;;;;;;2.40;1.25;;;24.40;1.00;;;;;;4916431;29;20052;-48
2023/07/12 08:11:27;;;;;;;5.78;1.55;;;24.40;1.00;;;;;;4939903;23;20480;-48
2023/07/12 08:13:54;;;;;;;2.33;1.05;;;24.40;1.00;;;;;;4916308;29;20463;-47
2023/07/12 08:16:25;;;;;;;1.80;1.10;;;24.40;1.00;;;;;;4916208;29;20056;-50
2023/07/12 08:18:53;;;;;;;3.30;2.15;;;24.40;1.00;;;;;;4916136;29;20051;-48
2023/07/12 08:21:20;;;;;;;5.00;1.20;;;24.40;1.00;;;;;;4907666;29;20055;-49
2023/07/12 08:23:47;;;;;;;4.88;1.73;;;24.40;1.00;;;;;;4897559;29;20052;-48
2023/07/12 08:26:15;;;;;;;5.63;1.73;;;24.40;1.00;;;;;;4897135;29;20051;-48
2023/07/12 08:28:42;;;;;;;4.47;1.52;;;24.40;1.00;;;;;;4897409;29;20033;-50
2023/07/12 08:31:08;;;;;;;4.35;1.15;;;24.50;1.00;;;;;;4897223;29;20139;-51
2023/07/12 08:33:36;;;;;;;5.90;1.45;;;24.50;1.00;;;;;;4897196;29;20041;-51
2023/07/12 08:36:03;;;;;;;5.00;1.70;;;24.50;1.00;;;;;;4896970;29;20071;-51
2023/07/12 08:38:31;;;;;;;5.07;1.67;;;24.50;1.00;;;;;;4896895;29;20045;-49
2023/07/12 08:41:00;;;;;;;5.75;1.40;;;24.50;1.00;;;;;;4897072;29;20045;-49
2023/07/12 08:43:32;;;;;;;3.08;1.05;;;24.50;1.00;;;;;;4897405;29;20045;-49
2023/07/12 08:46:12;;;;;;;2.80;1.30;;;24.60;1.00;;;;;;4896904;29;20096;-48
2023/07/12 08:48:39;;;;;;;4.20;1.10;;;24.60;1.00;;;;;;4896952;29;20045;-48
2023/07/12 08:51:15;;;;;;;2.33;1.10;;;24.60;1.00;;;;;;4896157;29;20071;-49
2023/07/12 08:53:44;;;;;;;4.93;1.20;;;24.60;1.00;;;;;;4897126;29;20040;-49
2023/07/12 08:56:15;;;;;;;2.10;0.90;;;24.60;1.00;;;;;;4896768;29;20052;-48
2023/07/12 08:58:45;;;;;;;5.03;1.33;;;24.60;1.00;;;;;;4896855;29;20100;-49
2023/07/12 09:01:16;;;;;;;3.97;1.10;;;24.60;1.00;;;;;;4897003;29;20096;-49
2023/07/12 09:03:43;;;;;;;2.80;1.02;;;24.60;1.00;;;;;;4896885;29;20555;-49
2023/07/12 09:06:15;;;;;;;5.32;0.90;;;24.60;1.00;;;;;;4896640;29;20049;-48
2023/07/12 09:08:47;;;;;;;2.03;0.93;;;24.60;1.00;;;;;;4896821;29;20497;-48
2023/07/12 09:11:16;;;;;;;2.25;0.80;;;24.60;1.00;;;;;;4896640;29;20096;-49
2023/07/12 09:13:46;;;;;;;3.08;1.17;;;24.60;1.00;;;;;;5294572;23;20051;-48
2023/07/12 09:16:23;;;;;;;4.63;1.88;;;24.60;1.00;;;;;;4953419;28;20069;-49
2023/07/12 09:18:53;;;;;;;4.20;0.95;;;24.60;1.00;;;;;;4953576;28;20512;-48
2023/07/12 09:21:24;;;;;;;1.73;0.63;;;24.70;1.00;;;;;;4953895;28;20043;-50
2023/07/12 09:23:52;;;;;;;4.63;0.93;;;24.70;1.00;;;;;;4953726;28;20040;-53
2023/07/12 09:26:28;;;;;;;6.53;1.48;;;24.70;1.00;;;;;;4953465;28;20031;-49
2023/07/12 09:29:05;;;;;;;4.38;1.55;;;24.70;1.00;;;;;;4953364;28;20043;-53
2023/07/12 09:31:35;;;;;;;4.50;1.40;;;24.70;1.00;;;;;;4952451;29;20039;-50
2023/07/12 09:34:05;;;;;;;3.45;1.50;;;24.70;1.00;;;;;;4953544;28;20039;-50
2023/07/12 09:36:39;;;;;;;2.08;1.02;;;24.80;1.00;;;;;;4953377;28;20035;-52
2023/07/12 09:39:10;;;;;;;6.05;1.27;;;24.80;1.00;;;;;;4953274;28;20487;-52
2023/07/12 09:41:50;;;;;;;1.88;0.82;;;24.80;1.00;;;;;;4953547;28;20101;-49
2023/07/12 09:44:17;;;;;;;3.35;1.40;;;24.80;1.00;;;;;;4953571;28;20118;-51
2023/07/12 09:46:53;;;;;;;1.70;1.02;;;24.80;1.00;;;;;;4984031;23;20385;-49
2023/07/12 09:49:25;;;;;;;2.55;1.05;;;24.80;1.00;;;;;;4915217;29;20047;-51
2023/07/12 09:52:32;;;;;;;5.65;1.20;;;24.80;1.00;;;;;;4902673;29;20044;-52
2023/07/12 09:55:12;;;;;;;2.95;0.80;;;24.80;1.00;;;;;;4880120;29;20395;-51
2023/07/12 09:58:06;;;;;;;2.13;0.85;;;24.80;1.00;;;;;;4896311;29;20088;-54
2023/07/12 10:00:39;;;;;;;3.45;0.77;;;24.80;1.00;;;;;;4896452;29;20041;-48
2023/07/12 10:03:31;;;;;;;3.40;1.00;;;24.80;1.00;;;;;;4898072;29;20115;-49
2023/07/12 10:06:09;;;;;;;2.28;0.88;;;24.80;1.00;;;;;;4899819;29;20498;-52
2023/07/12 10:08:43;;;;;;;4.63;1.15;;;24.80;1.00;;;;;;4899857;29;20040;-51
2023/07/12 10:11:18;;;;;;;4.03;1.27;;;24.90;1.00;;;;;;4899775;29;20047;-52
2023/07/12 10:13:49;;;;;;;3.65;1.10;;;24.90;1.00;;;;;;4899835;29;20041;-49
2023/07/12 10:16:30;;;;;;;5.82;1.10;;;24.90;1.00;;;;;;5151473;23;20394;-49
2023/07/12 10:19:00;;;;;;;3.35;0.93;;;24.90;1.00;;;;;;4937345;29;20039;-51
2023/07/12 10:21:29;;;;;;;4.38;1.20;;;24.90;1.00;;;;;;4928038;29;20044;-52
2023/07/12 10:23:59;;;;;;;2.03;0.65;;;24.90;1.00;;;;;;4918385;29;20040;-54
2023/07/12 10:26:27;;;;;;;2.60;0.80;;;24.90;1.00;;;;;;4918213;29;20476;-52
2023/07/12 10:29:11;;;;;;;4.45;1.05;;;24.90;1.00;;;;;;4918483;29;20404;-52
2023/07/12 10:31:57;;;;;;;1.67;1.10;;;24.90;1.00;;;;;;4918428;29;20072;-52
2023/07/12 10:34:32;;;;;;;2.13;1.15;;;24.90;1.00;;;;;;4918092;29;20115;-51
2023/07/12 10:37:19;;;;;;;4.00;0.70;;;24.90;1.00;;;;;;4918119;29;20040;-54
2023/07/12 10:39:47;;;;;;;2.97;1.42;;;24.90;1.00;;;;;;4918442;29;20560;-54
2023/07/12 10:42:33;;;;;;;6.18;1.30;;;24.90;1.00;;;;;;4918081;29;20108;-50
2023/07/12 10:45:04;;;;;;;3.38;1.10;;;25.00;1.00;;;;;;4917948;29;20119;-54
2023/07/12 10:47:35;;;;;;;3.13;0.80;;;25.00;1.00;;;;;;4918101;29;20040;-51
2023/07/12 10:50:07;;;;;;;5.07;1.13;;;24.90;1.00;;;;;;4967042;23;20048;-50
2023/07/12 10:52:55;;;;;;;3.13;1.13;;;25.00;1.00;;;;;;4936944;29;20531;-51
2023/07/12 10:55:42;;;;;;;4.00;1.00;;;25.00;1.00;;;;;;4936854;29;20458;-53
2023/07/12 10:58:23;;;;;;;5.50;0.93;;;25.00;1.00;;;;;;4936864;29;20103;-52
2023/07/12 11:00:56;;;;;;;1.63;0.77;;;25.00;1.00;;;;;;4936650;29;20072;-50
2023/07/12 11:03:41;;;;;;;2.13;0.95;;;25.00;1.00;;;;;;4936641;29;20032;-53
2023/07/12 11:06:26;;;;;;;1.23;0.68;;;25.00;1.00;;;;;;4936494;29;20059;-48
2023/07/12 11:09:03;;;;;;;2.63;1.08;;;25.00;1.00;;;;;;4936627;29;20098;-53
2023/07/12 11:11:41;;;;;;;5.25;1.00;;;25.00;1.00;;;;;;4936625;29;20106;-54
2023/07/12 11:14:18;;;;;;;2.50;1.15;;;25.00;1.00;;;;;;4935552;29;20040;-53
2023/07/12 11:17:03;;;;;;;2.88;1.02;;;25.00;1.00;;;;;;4936388;29;20048;-55
2023/07/12 11:19:32;;;;;;;4.00;1.08;;;25.00;1.00;;;;;;4931790;28;20434;-53
2023/07/12 11:22:24;;;;;;;2.40;1.05;;;25.00;1.00;;;;;;4917356;29;20481;-52
2023/07/12 11:24:58;;;;;;;1.92;0.77;;;25.00;1.00;;;;;;4917361;29;20378;-52
2023/07/12 11:27:46;;;;;;;3.22;0.90;;;25.00;1.00;;;;;;4917217;29;20401;-55
2023/07/12 11:30:26;;;;;;;1.05;0.60;;;25.00;1.00;;;;;;4917189;29;20122;-53
2023/07/12 11:32:59;;;;;;;4.63;1.13;;;25.00;1.00;;;;;;4917115;29;20446;-53
2023/07/12 11:35:51;;;;;;;1.25;0.77;;;25.00;1.00;;;;;;4917141;29;20509;-53
2023/07/12 11:38:27;;;;;;;4.13;1.00;;;25.00;1.00;;;;;;4916931;29;20055;-49
2023/07/12 11:40:57;;;;;;;1.98;0.80;;;25.00;1.00;;;;;;4917069;29;20115;-53
2023/07/12 11:43:23;;;;;;;1.67;0.98;;;25.00;1.00;;;;;;4917286;29;20040;-51
2023/07/12 11:45:53;;;;;;;2.90;1.10;;;25.00;1.00;;;;;;4916812;29;20119;-53
2023/07/12 11:48:21;;;;;;;2.50;0.98;;;25.00;1.00;;;;;;4916748;29;20048;-52
2023/07/12 11:50:50;;;;;;;2.85;0.90;;;25.00;1.00;;;;;;5003003;23;20462;-48
2023/07/12 11:53:18;;;;;;;2.47;1.00;;;25.00;1.00;;;;;;4897913;29;20230;-51
2023/07/12 11:55:49;;;;;;;1.83;0.57;;;25.00;1.00;;;;;;4897911;29;20044;-53
2023/07/12 11:58:21;;;;;;;4.88;0.98;;;25.00;1.00;;;;;;4896665;29;20110;-53
2023/07/12 12:00:50;;;;;;;3.45;0.90;;;25.00;1.00;;;;;;4897763;29;20112;-55
2023/07/12 12:03:17;;;;;;;1.80;0.73;;;25.00;1.00;;;;;;4896721;29;20045;-53
2023/07/12 12:05:46;;;;;;;3.53;0.70;;;25.00;1.00;;;;;;4898157;29;20033;-50
2023/07/12 12:08:21;;;;;;;1.95;0.70;;;25.00;1.00;;;;;;4898012;29;20072;-50
2023/07/12 12:10:48;;;;;;;2.17;0.70;;;25.10;1.00;;;;;;4897656;29;20120;-51
2023/07/12 12:13:18;;;;;;;3.53;0.90;;;25.10;1.00;;;;;;4897640;29;20516;-53
2023/07/12 12:16:15;;;;;;;2.10;0.80;;;25.10;1.00;;;;;;4897518;29;20046;-49
2023/07/12 12:18:53;;;;;;;2.95;1.25;;;25.00;1.00;;;;;;4897409;29;20044;-55
2023/07/12 12:21:23;;;;;;;2.13;0.75;;;25.00;1.00;;;;;;4935482;23;20568;-53
2023/07/12 12:23:52;;;;;;;1.52;0.57;;;25.00;1.00;;;;;;4935634;29;20052;-52
2023/07/12 12:26:20;;;;;;;5.93;1.08;;;25.00;1.00;;;;;;4934819;29;20047;-50
2023/07/12 12:28:56;;;;;;;5.00;1.25;;;25.00;1.00;;;;;;4935697;29;20486;-51
2023/07/12 12:31:25;;;;;;;4.63;1.48;;;25.10;1.00;;;;;;4935429;29;20040;-51
2023/07/12 12:34:13;;;;;;;2.88;1.02;;;25.10;1.00;;;;;;4942312;29;20406;-48
2023/07/12 12:37:08;;;;;;;2.17;0.90;;;25.00;1.00;;;;;;4954536;28;20513;-53
2023/07/12 12:39:36;;;;;;;4.68;1.63;;;25.00;1.00;;;;;;4954600;28;20063;-53
2023/07/12 12:42:17;;;;;;;1.85;0.82;;;25.00;1.00;;;;;;4954419;28;20046;-50
2023/07/12 12:44:44;;;;;;;1.67;1.00;;;25.00;1.00;;;;;;4954520;28;20727;-54
2023/07/12 12:47:20;;;;;;;2.70;1.25;;;25.00;1.00;;;;;;4954050;28;20125;-51
2023/07/12 12:49:47;;;;;;;3.47;1.10;;;25.00;1.00;;;;;;4954491;28;20118;-53
2023/07/12 12:52:30;;;;;;;2.42;0.65;;;25.00;1.00;;;;;;5138817;23;20551;-54
2023/07/12 12:55:02;;;;;;;1.83;0.90;;;25.00;1.00;;;;;;4915876;29;20059;-49
2023/07/12 12:57:39;;;;;;;3.28;0.80;;;25.00;1.00;;;;;;4915731;29;20137;-50
2023/07/12 13:00:20;;;;;;;3.90;1.25;;;25.00;1.00;;;;;;4915603;29;20100;-50
2023/07/12 13:02:53;;;;;;;3.53;1.15;;;25.00;1.00;;;;;;4896763;29;20043;-53
2023/07/12 13:05:25;;;;;;;5.53;0.80;;;25.00;1.00;;;;;;4896548;29;20045;-50
2023/07/12 13:07:57;;;;;;;1.75;0.85;;;25.00;1.00;;;;;;4897024;29;20500;-50
2023/07/12 13:10:44;;;;;;;1.42;0.93;;;25.00;1.00;;;;;;4896657;29;20096;-51
2023/07/12 13:13:16;;;;;;;1.48;0.73;;;25.00;1.00;;;;;;4896640;29;20075;-53
2023/07/12 13:15:47;;;;;;;4.05;1.23;;;25.00;1.00;;;;;;4896564;29;20141;-51
2023/07/12 13:18:17;;;;;;;1.55;0.77;;;25.00;1.00;;;;;;4896546;29;20067;-50
2023/07/12 13:23:45;;;;;;;2.97;1.10;;;25.00;1.00;;;;;;4839085;29;20121;-50